Marty Baskerville — WDC8730 — position and weather

sailwx.info

Track history (hours):
 
Tides and Currents Weather Stations Pressure Air Temp Water Temp Dewpoint Dewpoint Depression Visibility Wind Speed Wind Dir Waves Ship Positions

Marty Baskerville

Owner: Ingram Barge Company LLC, NASHVILLE, TN. More information available from US FCC via Universal Licensing System and Coast Guard Vessel Documentation Center.

Last reported at 2018-Jun-19 02:30 UTC. Time now 2018-Jun-19 02:36 UTC.
Position N 33°00' W 091°10'.

Length 60 m; draft 3 m.

Type: Towing. MMSI: 367092230.

Date/timePositionNaut miles runAvg speedWind from/ knotsBaromVisibWave heightAir tempDewpointWater temp
2018-Jun-19 02:30N 33°00' W 091°10'2 4.4
2018-Jun-19 02:00N 32°58' W 091°09'17 2.7
2018-Jun-18 19:36N 32°41' W 091°06'1 5.0
2018-Jun-18 19:28N 32°40' W 091°07'2 3.4
2018-Jun-18 19:01N 32°40' W 091°08'2 3.7
2018-Jun-18 18:30N 32°38' W 091°09'2 4.9
2018-Jun-18 18:00N 32°36' W 091°08'2 4.6
2018-Jun-18 17:30N 32°34' W 091°06'2 3.8
2018-Jun-18 17:00N 32°32' W 091°06'3 5.2
2018-Jun-18 16:31N 32°30' W 091°07'2 4.7
2018-Jun-18 16:00N 32°28' W 091°06'2 4.7
2018-Jun-18 15:30N 32°26' W 091°03'2 4.6
2018-Jun-18 15:00N 32°26' W 091°01'2 4.0
2018-Jun-18 14:30N 32°24' W 090°59'2 4.5
2018-Jun-18 14:00N 32°22' W 091°00'2 4.3
2018-Jun-18 13:30N 32°21' W 090°58'2 3.9
2018-Jun-18 13:00N 32°21' W 090°56'2 3.9
2018-Jun-18 12:30N 32°19' W 090°54'2 4.2
2018-Jun-18 12:00N 32°18' W 090°56'2 4.4
2018-Jun-18 11:30N 32°16' W 090°58'2 4.0
2018-Jun-18 11:00N 32°14' W 090°59'0 0.1
2018-Jun-18 10:30N 32°14' W 090°59'0 0.0
2018-Jun-18 10:00N 32°14' W 090°59'2 3.8
2018-Jun-18 09:30N 32°13' W 090°59'2 4.4
2018-Jun-18 09:00N 32°10' W 090°60'2 4.4
2018-Jun-18 08:30N 32°08' W 091°00'2 4.0
2018-Jun-18 08:00N 32°07' W 091°02'2 4.6
2018-Jun-18 07:28N 32°08' W 091°05'2 3.6
2018-Jun-18 07:00N 32°07' W 091°06'3 5.1
2018-Jun-18 06:30N 32°05' W 091°04'2 4.0
2018-Jun-18 06:00N 32°03' W 091°04'2 4.6
2018-Jun-18 05:30N 32°01' W 091°05'6 4.5
2018-Jun-18 04:11N 31°58' W 091°11'  
2018-Jun-14 17:05N 31°57' W 091°11'2 7.9
2018-Jun-14 16:53N 31°59' W 091°10'4 8.3
2018-Jun-14 16:27N 31°59' W 091°06'4 8.2
2018-Jun-14 16:01N 32°02' W 091°04'4 7.8
2018-Jun-14 15:27N 32°06' W 091°06'2 4.9
2018-Jun-14 15:00N 32°08' W 091°04'4 7.2
2018-Jun-14 14:31N 32°09' W 091°00'4 8.4
2018-Jun-14 14:01N 32°13' W 090°59'4 8.0
2018-Jun-14 13:30N 32°17' W 090°57'4 8.4
2018-Jun-14 13:00N 32°20' W 090°54'4 7.5
2018-Jun-14 12:31N 32°21' W 090°58'3 6.0
2018-Jun-14 12:01N 32°24' W 090°59'4 7.4
2018-Jun-14 11:30N 32°26' W 091°03'4 8.3
2018-Jun-14 11:00N 32°29' W 091°07'4 8.5
2018-Jun-14 10:30N 32°33' W 091°06'4 8.1
2018-Jun-14 10:00N 32°36' W 091°09'8 4.6
2018-Jun-14 08:09N 32°45' W 091°09'13 7.3
2018-Jun-14 06:25N 32°57' W 091°05'  
Track history (hours):
 
Tides and Currents Weather Stations Pressure Air Temp Water Temp Dewpoint Dewpoint Depression Visibility Wind Speed Wind Dir Waves Ship Positions

Marty Baskerville

Owner: Ingram Barge Company LLC, NASHVILLE, TN. More information available from US FCC via Universal Licensing System and Coast Guard Vessel Documentation Center.

Last reported at 2018-Jun-19 02:30 UTC. Time now 2018-Jun-19 02:36 UTC.
Position N 33°00' W 091°10'.

Length 60 m; draft 3 m.

Type: Towing. MMSI: 367092230.

Date/timePositionNaut miles runAvg speedWind from/ knotsBaromVisibWave heightAir tempDewpointWater temp
2018-Jun-19 02:30N 33°00' W 091°10'2 4.4
2018-Jun-19 02:00N 32°58' W 091°09'17 2.7
2018-Jun-18 19:36N 32°41' W 091°06'1 5.0
2018-Jun-18 19:28N 32°40' W 091°07'2 3.4
2018-Jun-18 19:01N 32°40' W 091°08'2 3.7
2018-Jun-18 18:30N 32°38' W 091°09'2 4.9
2018-Jun-18 18:00N 32°36' W 091°08'2 4.6
2018-Jun-18 17:30N 32°34' W 091°06'2 3.8
2018-Jun-18 17:00N 32°32' W 091°06'3 5.2
2018-Jun-18 16:31N 32°30' W 091°07'2 4.7
2018-Jun-18 16:00N 32°28' W 091°06'2 4.7
2018-Jun-18 15:30N 32°26' W 091°03'2 4.6
2018-Jun-18 15:00N 32°26' W 091°01'2 4.0
2018-Jun-18 14:30N 32°24' W 090°59'2 4.5
2018-Jun-18 14:00N 32°22' W 091°00'2 4.3
2018-Jun-18 13:30N 32°21' W 090°58'2 3.9
2018-Jun-18 13:00N 32°21' W 090°56'2 3.9
2018-Jun-18 12:30N 32°19' W 090°54'2 4.2
2018-Jun-18 12:00N 32°18' W 090°56'2 4.4
2018-Jun-18 11:30N 32°16' W 090°58'2 4.0
2018-Jun-18 11:00N 32°14' W 090°59'0 0.1
2018-Jun-18 10:30N 32°14' W 090°59'0 0.0
2018-Jun-18 10:00N 32°14' W 090°59'2 3.8
2018-Jun-18 09:30N 32°13' W 090°59'2 4.4
2018-Jun-18 09:00N 32°10' W 090°60'2 4.4
2018-Jun-18 08:30N 32°08' W 091°00'2 4.0
2018-Jun-18 08:00N 32°07' W 091°02'2 4.6
2018-Jun-18 07:28N 32°08' W 091°05'2 3.6
2018-Jun-18 07:00N 32°07' W 091°06'3 5.1
2018-Jun-18 06:30N 32°05' W 091°04'2 4.0
2018-Jun-18 06:00N 32°03' W 091°04'2 4.6
2018-Jun-18 05:30N 32°01' W 091°05'6 4.5
2018-Jun-18 04:11N 31°58' W 091°11'  
2018-Jun-14 17:05N 31°57' W 091°11'2 7.9
2018-Jun-14 16:53N 31°59' W 091°10'4 8.3
2018-Jun-14 16:27N 31°59' W 091°06'4 8.2
2018-Jun-14 16:01N 32°02' W 091°04'4 7.8
2018-Jun-14 15:27N 32°06' W 091°06'2 4.9
2018-Jun-14 15:00N 32°08' W 091°04'4 7.2
2018-Jun-14 14:31N 32°09' W 091°00'4 8.4
2018-Jun-14 14:01N 32°13' W 090°59'4 8.0
2018-Jun-14 13:30N 32°17' W 090°57'4 8.4
2018-Jun-14 13:00N 32°20' W 090°54'4 7.5
2018-Jun-14 12:31N 32°21' W 090°58'3 6.0
2018-Jun-14 12:01N 32°24' W 090°59'4 7.4
2018-Jun-14 11:30N 32°26' W 091°03'4 8.3
2018-Jun-14 11:00N 32°29' W 091°07'4 8.5
2018-Jun-14 10:30N 32°33' W 091°06'4 8.1
2018-Jun-14 10:00N 32°36' W 091°09'8 4.6
2018-Jun-14 08:09N 32°45' W 091°09'13 7.3
2018-Jun-14 06:25N 32°57' W 091°05'  

Dump ship's entire track history